sensor_id;sensor_type;location;lat;lon;timestamp;P1;durP1;ratioP1;P2;durP2;ratioP2
44606;SDS011;30315;46.072;14.474;2023-11-19T00:02:48;9.85;;;8.15;;
44606;SDS011;30315;46.072;14.474;2023-11-19T00:05:22;10.52;;;8.60;;
44606;SDS011;30315;46.072;14.474;2023-11-19T00:07:55;9.85;;;8.82;;
44606;SDS011;30315;46.072;14.474;2023-11-19T00:10:33;14.48;;;8.48;;
44606;SDS011;30315;46.072;14.474;2023-11-19T00:13:05;10.23;;;7.95;;
44606;SDS011;30315;46.072;14.474;2023-11-19T00:15:33;9.15;;;7.72;;
44606;SDS011;30315;46.072;14.474;2023-11-19T00:18:23;9.30;;;8.30;;
44606;SDS011;30315;46.072;14.474;2023-11-19T00:21:03;11.27;;;8.48;;
44606;SDS011;30315;46.072;14.474;2023-11-19T00:23:33;9.30;;;7.45;;
44606;SDS011;30315;46.072;14.474;2023-11-19T00:26:09;8.43;;;7.68;;
44606;SDS011;30315;46.072;14.474;2023-11-19T00:28:51;8.40;;;6.70;;
44606;SDS011;30315;46.072;14.474;2023-11-19T00:31:21;9.07;;;7.22;;
44606;SDS011;30315;46.072;14.474;2023-11-19T00:33:58;9.02;;;6.45;;
44606;SDS011;30315;46.072;14.474;2023-11-19T00:36:26;10.43;;;8.85;;
44606;SDS011;30315;46.072;14.474;2023-11-19T00:38:56;11.90;;;8.45;;
44606;SDS011;30315;46.072;14.474;2023-11-19T00:41:30;7.28;;;6.78;;
44606;SDS011;30315;46.072;14.474;2023-11-19T00:44:07;9.85;;;8.00;;
44606;SDS011;30315;46.072;14.474;2023-11-19T00:46:44;11.63;;;8.68;;
44606;SDS011;30315;46.072;14.474;2023-11-19T00:49:13;10.02;;;9.00;;
44606;SDS011;30315;46.072;14.474;2023-11-19T00:51:43;10.80;;;8.60;;
44606;SDS011;30315;46.072;14.474;2023-11-19T00:56:52;9.63;;;8.18;;
44606;SDS011;30315;46.072;14.474;2023-11-19T00:59:27;10.00;;;8.13;;
44606;SDS011;30315;46.072;14.474;2023-11-19T01:01:55;10.68;;;8.52;;
44606;SDS011;30315;46.072;14.474;2023-11-19T01:04:23;8.93;;;7.90;;
44606;SDS011;30315;46.072;14.474;2023-11-19T01:06:51;11.80;;;8.15;;
44606;SDS011;30315;46.072;14.474;2023-11-19T01:09:26;8.55;;;7.53;;
44606;SDS011;30315;46.072;14.474;2023-11-19T01:14:52;12.75;;;8.32;;
44606;SDS011;30315;46.072;14.474;2023-11-19T01:17:19;10.45;;;7.40;;
44606;SDS011;30315;46.072;14.474;2023-11-19T01:20:10;9.40;;;7.00;;
44606;SDS011;30315;46.072;14.474;2023-11-19T01:22:40;16.67;;;7.63;;
44606;SDS011;30315;46.072;14.474;2023-11-19T01:28:28;7.78;;;7.07;;
44606;SDS011;30315;46.072;14.474;2023-11-19T01:30:57;7.60;;;6.85;;
44606;SDS011;30315;46.072;14.474;2023-11-19T01:33:24;8.70;;;7.95;;
44606;SDS011;30315;46.072;14.474;2023-11-19T01:35:52;17.60;;;8.60;;
44606;SDS011;30315;46.072;14.474;2023-11-19T01:38:20;8.48;;;7.65;;
44606;SDS011;30315;46.072;14.474;2023-11-19T01:40:47;10.70;;;9.60;;
44606;SDS011;30315;46.072;14.474;2023-11-19T01:43:31;12.98;;;8.00;;
44606;SDS011;30315;46.072;14.474;2023-11-19T01:46:05;7.88;;;7.05;;
44606;SDS011;30315;46.072;14.474;2023-11-19T01:48:34;9.30;;;6.95;;
44606;SDS011;30315;46.072;14.474;2023-11-19T01:51:03;13.48;;;8.68;;
44606;SDS011;30315;46.072;14.474;2023-11-19T01:56:03;9.70;;;6.28;;
44606;SDS011;30315;46.072;14.474;2023-11-19T01:58:55;7.32;;;6.70;;
44606;SDS011;30315;46.072;14.474;2023-11-19T02:01:37;9.38;;;7.35;;
44606;SDS011;30315;46.072;14.474;2023-11-19T02:04:07;11.02;;;7.20;;
44606;SDS011;30315;46.072;14.474;2023-11-19T02:06:49;7.30;;;6.75;;
44606;SDS011;30315;46.072;14.474;2023-11-19T02:09:23;8.75;;;7.20;;
44606;SDS011;30315;46.072;14.474;2023-11-19T02:11:51;11.90;;;7.68;;
44606;SDS011;30315;46.072;14.474;2023-11-19T02:14:31;10.40;;;6.72;;
44606;SDS011;30315;46.072;14.474;2023-11-19T02:16:59;7.25;;;6.75;;
44606;SDS011;30315;46.072;14.474;2023-11-19T02:19:26;12.95;;;7.25;;
44606;SDS011;30315;46.072;14.474;2023-11-19T02:21:54;6.90;;;6.30;;
44606;SDS011;30315;46.072;14.474;2023-11-19T02:31:12;7.60;;;6.82;;
44606;SDS011;30315;46.072;14.474;2023-11-19T02:33:40;12.88;;;7.60;;
44606;SDS011;30315;46.072;14.474;2023-11-19T02:39:17;9.60;;;7.35;;
44606;SDS011;30315;46.072;14.474;2023-11-19T02:41:48;10.82;;;6.28;;
44606;SDS011;30315;46.072;14.474;2023-11-19T02:44:19;7.10;;;6.50;;
44606;SDS011;30315;46.072;14.474;2023-11-19T02:46:57;8.60;;;6.90;;
44606;SDS011;30315;46.072;14.474;2023-11-19T02:49:26;7.88;;;7.05;;
44606;SDS011;30315;46.072;14.474;2023-11-19T02:51:54;6.13;;;5.72;;
44606;SDS011;30315;46.072;14.474;2023-11-19T02:54:21;7.15;;;6.47;;
44606;SDS011;30315;46.072;14.474;2023-11-19T02:56:53;10.57;;;7.32;;
44606;SDS011;30315;46.072;14.474;2023-11-19T02:59:26;7.38;;;6.75;;
44606;SDS011;30315;46.072;14.474;2023-11-19T03:01:56;6.50;;;6.00;;
44606;SDS011;30315;46.072;14.474;2023-11-19T03:04:27;6.97;;;6.45;;
44606;SDS011;30315;46.072;14.474;2023-11-19T03:06:55;7.03;;;5.85;;
44606;SDS011;30315;46.072;14.474;2023-11-19T03:09:30;7.10;;;6.07;;
44606;SDS011;30315;46.072;14.474;2023-11-19T03:11:57;8.25;;;7.43;;
44606;SDS011;30315;46.072;14.474;2023-11-19T03:14:25;7.38;;;6.45;;
44606;SDS011;30315;46.072;14.474;2023-11-19T03:16:53;6.40;;;5.82;;
44606;SDS011;30315;46.072;14.474;2023-11-19T03:19:22;10.68;;;6.95;;
44606;SDS011;30315;46.072;14.474;2023-11-19T03:21:52;10.15;;;7.15;;
44606;SDS011;30315;46.072;14.474;2023-11-19T03:24:20;8.23;;;6.07;;
44606;SDS011;30315;46.072;14.474;2023-11-19T03:26:50;9.20;;;6.13;;
44606;SDS011;30315;46.072;14.474;2023-11-19T03:29:21;8.75;;;6.55;;
44606;SDS011;30315;46.072;14.474;2023-11-19T03:31:49;7.90;;;5.72;;
44606;SDS011;30315;46.072;14.474;2023-11-19T03:34:17;8.05;;;6.70;;
44606;SDS011;30315;46.072;14.474;2023-11-19T03:36:45;6.53;;;5.75;;
44606;SDS011;30315;46.072;14.474;2023-11-19T03:39:13;13.32;;;7.63;;
44606;SDS011;30315;46.072;14.474;2023-11-19T03:41:47;6.75;;;6.13;;
44606;SDS011;30315;46.072;14.474;2023-11-19T03:44:15;5.65;;;5.30;;
44606;SDS011;30315;46.072;14.474;2023-11-19T03:46:42;6.07;;;5.57;;
44606;SDS011;30315;46.072;14.474;2023-11-19T03:49:10;7.43;;;6.60;;
44606;SDS011;30315;46.072;14.474;2023-11-19T03:51:38;6.63;;;5.85;;
44606;SDS011;30315;46.072;14.474;2023-11-19T03:56:43;9.50;;;6.38;;
44606;SDS011;30315;46.072;14.474;2023-11-19T03:59:15;6.10;;;5.17;;
44606;SDS011;30315;46.072;14.474;2023-11-19T04:01:46;6.93;;;6.40;;
44606;SDS011;30315;46.072;14.474;2023-11-19T04:04:14;22.10;;;6.40;;
44606;SDS011;30315;46.072;14.474;2023-11-19T04:06:46;5.93;;;5.43;;
44606;SDS011;30315;46.072;14.474;2023-11-19T04:09:13;9.57;;;5.25;;
44606;SDS011;30315;46.072;14.474;2023-11-19T04:11:56;5.50;;;5.03;;
44606;SDS011;30315;46.072;14.474;2023-11-19T04:14:25;6.00;;;5.50;;
44606;SDS011;30315;46.072;14.474;2023-11-19T04:16:53;6.72;;;6.13;;
44606;SDS011;30315;46.072;14.474;2023-11-19T04:19:22;5.78;;;5.38;;
44606;SDS011;30315;46.072;14.474;2023-11-19T04:21:50;4.82;;;4.50;;
44606;SDS011;30315;46.072;14.474;2023-11-19T04:24:19;6.93;;;6.35;;
44606;SDS011;30315;46.072;14.474;2023-11-19T04:26:46;5.05;;;4.72;;
44606;SDS011;30315;46.072;14.474;2023-11-19T04:29:15;5.33;;;4.93;;
44606;SDS011;30315;46.072;14.474;2023-11-19T04:31:50;6.95;;;6.28;;
44606;SDS011;30315;46.072;14.474;2023-11-19T04:34:17;9.65;;;6.18;;
44606;SDS011;30315;46.072;14.474;2023-11-19T04:36:45;7.88;;;6.13;;
44606;SDS011;30315;46.072;14.474;2023-11-19T04:39:13;8.85;;;5.32;;
44606;SDS011;30315;46.072;14.474;2023-11-19T04:41:51;5.22;;;4.85;;
44606;SDS011;30315;46.072;14.474;2023-11-19T04:44:20;6.78;;;5.85;;
44606;SDS011;30315;46.072;14.474;2023-11-19T04:47:02;7.07;;;5.97;;
44606;SDS011;30315;46.072;14.474;2023-11-19T04:49:46;6.10;;;5.63;;
44606;SDS011;30315;46.072;14.474;2023-11-19T04:52:16;5.13;;;4.82;;
44606;SDS011;30315;46.072;14.474;2023-11-19T04:54:58;5.15;;;4.75;;
44606;SDS011;30315;46.072;14.474;2023-11-19T04:57:49;8.45;;;6.55;;
44606;SDS011;30315;46.072;14.474;2023-11-19T05:00:16;7.93;;;5.60;;
44606;SDS011;30315;46.072;14.474;2023-11-19T05:02:44;7.47;;;6.13;;
44606;SDS011;30315;46.072;14.474;2023-11-19T05:05:15;6.22;;;5.57;;
44606;SDS011;30315;46.072;14.474;2023-11-19T05:07:52;7.25;;;6.63;;
44606;SDS011;30315;46.072;14.474;2023-11-19T05:10:19;6.15;;;5.68;;
44606;SDS011;30315;46.072;14.474;2023-11-19T05:12:48;12.50;;;6.13;;
44606;SDS011;30315;46.072;14.474;2023-11-19T05:15:16;6.47;;;5.75;;
44606;SDS011;30315;46.072;14.474;2023-11-19T05:17:44;6.38;;;5.88;;
44606;SDS011;30315;46.072;14.474;2023-11-19T05:20:17;6.47;;;5.97;;
44606;SDS011;30315;46.072;14.474;2023-11-19T05:23:00;5.63;;;5.20;;
44606;SDS011;30315;46.072;14.474;2023-11-19T05:25:28;6.45;;;5.85;;
44606;SDS011;30315;46.072;14.474;2023-11-19T05:28:02;7.00;;;6.00;;
44606;SDS011;30315;46.072;14.474;2023-11-19T05:30:48;7.05;;;6.35;;
44606;SDS011;30315;46.072;14.474;2023-11-19T05:33:23;6.38;;;5.82;;
44606;SDS011;30315;46.072;14.474;2023-11-19T05:35:50;5.40;;;4.70;;
44606;SDS011;30315;46.072;14.474;2023-11-19T05:38:32;5.13;;;4.72;;
44606;SDS011;30315;46.072;14.474;2023-11-19T05:40:59;6.22;;;5.80;;
44606;SDS011;30315;46.072;14.474;2023-11-19T05:43:26;6.53;;;5.93;;
44606;SDS011;30315;46.072;14.474;2023-11-19T05:45:55;6.63;;;5.38;;
44606;SDS011;30315;46.072;14.474;2023-11-19T05:48:24;5.43;;;5.10;;
44606;SDS011;30315;46.072;14.474;2023-11-19T05:50:53;8.60;;;5.50;;
44606;SDS011;30315;46.072;14.474;2023-11-19T05:53:22;7.13;;;5.10;;
44606;SDS011;30315;46.072;14.474;2023-11-19T05:55:52;9.52;;;6.65;;
44606;SDS011;30315;46.072;14.474;2023-11-19T05:58:24;6.45;;;5.32;;
44606;SDS011;30315;46.072;14.474;2023-11-19T06:00:53;5.97;;;5.60;;
44606;SDS011;30315;46.072;14.474;2023-11-19T06:03:21;6.90;;;6.22;;
44606;SDS011;30315;46.072;14.474;2023-11-19T06:05:49;6.65;;;5.25;;
44606;SDS011;30315;46.072;14.474;2023-11-19T06:08:28;11.82;;;6.43;;
44606;SDS011;30315;46.072;14.474;2023-11-19T06:10:57;5.85;;;5.28;;
44606;SDS011;30315;46.072;14.474;2023-11-19T06:13:31;6.22;;;5.72;;
44606;SDS011;30315;46.072;14.474;2023-11-19T06:15:58;8.45;;;6.28;;
44606;SDS011;30315;46.072;14.474;2023-11-19T06:18:36;7.45;;;6.75;;
44606;SDS011;30315;46.072;14.474;2023-11-19T06:21:04;8.63;;;6.70;;
44606;SDS011;30315;46.072;14.474;2023-11-19T06:23:49;6.25;;;5.68;;
44606;SDS011;30315;46.072;14.474;2023-11-19T06:26:19;6.40;;;5.90;;
44606;SDS011;30315;46.072;14.474;2023-11-19T06:28:49;6.43;;;5.95;;
44606;SDS011;30315;46.072;14.474;2023-11-19T06:31:18;6.63;;;6.03;;
44606;SDS011;30315;46.072;14.474;2023-11-19T06:33:45;9.65;;;6.38;;
44606;SDS011;30315;46.072;14.474;2023-11-19T06:36:16;6.13;;;5.60;;
44606;SDS011;30315;46.072;14.474;2023-11-19T06:38:57;8.23;;;6.28;;
44606;SDS011;30315;46.072;14.474;2023-11-19T06:41:24;8.77;;;7.85;;
44606;SDS011;30315;46.072;14.474;2023-11-19T06:43:52;9.38;;;6.45;;
44606;SDS011;30315;46.072;14.474;2023-11-19T06:46:59;7.05;;;6.43;;
44606;SDS011;30315;46.072;14.474;2023-11-19T06:49:28;6.60;;;6.05;;
44606;SDS011;30315;46.072;14.474;2023-11-19T06:51:55;7.15;;;6.63;;
44606;SDS011;30315;46.072;14.474;2023-11-19T06:54:24;7.07;;;6.47;;
44606;SDS011;30315;46.072;14.474;2023-11-19T06:56:55;9.73;;;6.07;;
44606;SDS011;30315;46.072;14.474;2023-11-19T06:59:23;5.78;;;5.30;;
44606;SDS011;30315;46.072;14.474;2023-11-19T07:01:51;7.15;;;6.57;;
44606;SDS011;30315;46.072;14.474;2023-11-19T07:04:18;8.07;;;6.45;;
44606;SDS011;30315;46.072;14.474;2023-11-19T07:06:56;7.95;;;5.95;;
44606;SDS011;30315;46.072;14.474;2023-11-19T07:09:29;6.07;;;5.53;;
44606;SDS011;30315;46.072;14.474;2023-11-19T07:12:00;7.55;;;6.40;;
44606;SDS011;30315;46.072;14.474;2023-11-19T07:14:29;6.97;;;6.38;;
44606;SDS011;30315;46.072;14.474;2023-11-19T07:19:58;7.18;;;6.47;;
44606;SDS011;30315;46.072;14.474;2023-11-19T07:22:39;6.93;;;6.30;;
44606;SDS011;30315;46.072;14.474;2023-11-19T07:28:36;12.88;;;5.25;;
44606;SDS011;30315;46.072;14.474;2023-11-19T07:31:19;7.10;;;6.55;;
44606;SDS011;30315;46.072;14.474;2023-11-19T07:33:50;6.38;;;5.32;;
44606;SDS011;30315;46.072;14.474;2023-11-19T07:36:24;7.15;;;6.55;;
44606;SDS011;30315;46.072;14.474;2023-11-19T07:38:59;15.23;;;5.85;;
44606;SDS011;30315;46.072;14.474;2023-11-19T07:41:26;7.88;;;7.10;;
44606;SDS011;30315;46.072;14.474;2023-11-19T07:43:57;6.65;;;5.90;;
44606;SDS011;30315;46.072;14.474;2023-11-19T07:46:27;6.82;;;6.30;;
44606;SDS011;30315;46.072;14.474;2023-11-19T07:48:55;9.32;;;6.70;;
44606;SDS011;30315;46.072;14.474;2023-11-19T07:51:22;7.75;;;6.68;;
44606;SDS011;30315;46.072;14.474;2023-11-19T07:53:50;6.72;;;6.13;;
44606;SDS011;30315;46.072;14.474;2023-11-19T07:56:25;8.63;;;5.78;;
44606;SDS011;30315;46.072;14.474;2023-11-19T08:02:06;6.25;;;5.63;;
44606;SDS011;30315;46.072;14.474;2023-11-19T08:07:48;7.03;;;6.35;;
44606;SDS011;30315;46.072;14.474;2023-11-19T08:10:22;6.30;;;5.70;;
44606;SDS011;30315;46.072;14.474;2023-11-19T08:12:50;8.55;;;5.95;;
44606;SDS011;30315;46.072;14.474;2023-11-19T08:15:21;6.38;;;5.97;;
44606;SDS011;30315;46.072;14.474;2023-11-19T08:18:14;11.05;;;7.65;;
44606;SDS011;30315;46.072;14.474;2023-11-19T08:20:46;7.05;;;6.32;;
44606;SDS011;30315;46.072;14.474;2023-11-19T08:23:22;6.20;;;5.82;;
44606;SDS011;30315;46.072;14.474;2023-11-19T08:25:54;7.38;;;6.72;;
44606;SDS011;30315;46.072;14.474;2023-11-19T08:28:23;7.63;;;6.28;;
44606;SDS011;30315;46.072;14.474;2023-11-19T08:34:17;7.32;;;6.25;;
44606;SDS011;30315;46.072;14.474;2023-11-19T08:36:49;8.02;;;7.18;;
44606;SDS011;30315;46.072;14.474;2023-11-19T08:39:32;6.90;;;6.30;;
44606;SDS011;30315;46.072;14.474;2023-11-19T08:42:01;6.93;;;6.40;;
44606;SDS011;30315;46.072;14.474;2023-11-19T08:44:43;6.68;;;6.18;;
44606;SDS011;30315;46.072;14.474;2023-11-19T08:47:30;7.78;;;7.07;;
44606;SDS011;30315;46.072;14.474;2023-11-19T08:50:00;8.07;;;6.60;;
44606;SDS011;30315;46.072;14.474;2023-11-19T08:52:36;7.13;;;6.55;;
44606;SDS011;30315;46.072;14.474;2023-11-19T08:58:05;9.00;;;6.43;;
44606;SDS011;30315;46.072;14.474;2023-11-19T09:00:39;7.97;;;5.55;;
44606;SDS011;30315;46.072;14.474;2023-11-19T09:03:10;7.88;;;7.05;;
44606;SDS011;30315;46.072;14.474;2023-11-19T09:06:53;6.90;;;6.30;;
44606;SDS011;30315;46.072;14.474;2023-11-19T09:17:57;6.47;;;5.80;;
44606;SDS011;30315;46.072;14.474;2023-11-19T09:20:33;7.13;;;6.43;;
44606;SDS011;30315;46.072;14.474;2023-11-19T09:23:16;6.85;;;6.25;;
44606;SDS011;30315;46.072;14.474;2023-11-19T09:29:54;9.57;;;6.80;;
44606;SDS011;30315;46.072;14.474;2023-11-19T09:35:17;9.02;;;6.20;;
44606;SDS011;30315;46.072;14.474;2023-11-19T09:40:59;6.85;;;6.28;;
44606;SDS011;30315;46.072;14.474;2023-11-19T09:43:56;6.70;;;6.10;;
44606;SDS011;30315;46.072;14.474;2023-11-19T09:46:39;6.88;;;6.28;;
44606;SDS011;30315;46.072;14.474;2023-11-19T09:52:35;7.45;;;6.78;;
44606;SDS011;30315;46.072;14.474;2023-11-19T09:55:09;7.63;;;6.50;;
44606;SDS011;30315;46.072;14.474;2023-11-19T09:57:40;9.45;;;6.40;;
44606;SDS011;30315;46.072;14.474;2023-11-19T10:00:22;8.15;;;7.32;;
44606;SDS011;30315;46.072;14.474;2023-11-19T10:02:50;9.77;;;7.93;;
44606;SDS011;30315;46.072;14.474;2023-11-19T10:06:13;8.55;;;7.70;;
44606;SDS011;30315;46.072;14.474;2023-11-19T10:08:56;15.23;;;7.32;;
44606;SDS011;30315;46.072;14.474;2023-11-19T10:11:33;8.13;;;7.32;;
44606;SDS011;30315;46.072;14.474;2023-11-19T10:14:01;8.35;;;6.95;;
44606;SDS011;30315;46.072;14.474;2023-11-19T10:16:29;8.18;;;7.30;;
44606;SDS011;30315;46.072;14.474;2023-11-19T10:19:26;11.40;;;7.57;;
44606;SDS011;30315;46.072;14.474;2023-11-19T10:22:03;9.13;;;8.13;;
44606;SDS011;30315;46.072;14.474;2023-11-19T10:24:32;8.15;;;7.28;;
44606;SDS011;30315;46.072;14.474;2023-11-19T10:30:28;10.93;;;8.10;;
44606;SDS011;30315;46.072;14.474;2023-11-19T10:38:33;10.68;;;7.88;;
44606;SDS011;30315;46.072;14.474;2023-11-19T10:41:26;8.93;;;7.63;;
44606;SDS011;30315;46.072;14.474;2023-11-19T10:44:32;12.35;;;7.72;;
44606;SDS011;30315;46.072;14.474;2023-11-19T10:47:13;10.35;;;7.65;;
44606;SDS011;30315;46.072;14.474;2023-11-19T10:49:49;11.43;;;7.87;;
44606;SDS011;30315;46.072;14.474;2023-11-19T10:52:17;7.20;;;6.60;;
44606;SDS011;30315;46.072;14.474;2023-11-19T10:55:10;10.88;;;7.20;;
44606;SDS011;30315;46.072;14.474;2023-11-19T11:00:50;10.20;;;6.97;;
44606;SDS011;30315;46.072;14.474;2023-11-19T11:03:53;8.55;;;5.88;;
44606;SDS011;30315;46.072;14.474;2023-11-19T11:06:35;8.75;;;6.22;;
44606;SDS011;30315;46.072;14.474;2023-11-19T11:09:02;9.55;;;7.18;;
44606;SDS011;30315;46.072;14.474;2023-11-19T11:11:31;17.08;;;6.72;;
44606;SDS011;30315;46.072;14.474;2023-11-19T11:17:20;9.25;;;7.38;;
44606;SDS011;30315;46.072;14.474;2023-11-19T11:20:11;9.02;;;7.28;;
44606;SDS011;30315;46.072;14.474;2023-11-19T11:22:44;10.52;;;6.68;;
44606;SDS011;30315;46.072;14.474;2023-11-19T11:38:08;7.43;;;6.72;;
44606;SDS011;30315;46.072;14.474;2023-11-19T11:40:40;7.03;;;6.35;;
44606;SDS011;30315;46.072;14.474;2023-11-19T11:49:24;7.05;;;6.38;;
44606;SDS011;30315;46.072;14.474;2023-11-19T11:52:12;8.18;;;7.10;;
44606;SDS011;30315;46.072;14.474;2023-11-19T11:54:44;8.90;;;6.07;;
44606;SDS011;30315;46.072;14.474;2023-11-19T12:00:29;7.57;;;6.85;;
44606;SDS011;30315;46.072;14.474;2023-11-19T12:03:34;6.43;;;5.93;;
44606;SDS011;30315;46.072;14.474;2023-11-19T12:06:20;11.27;;;7.33;;
44606;SDS011;30315;46.072;14.474;2023-11-19T12:09:12;9.02;;;7.03;;
44606;SDS011;30315;46.072;14.474;2023-11-19T12:12:06;9.45;;;7.95;;
44606;SDS011;30315;46.072;14.474;2023-11-19T12:17:42;10.10;;;7.97;;
44606;SDS011;30315;46.072;14.474;2023-11-19T12:27:41;6.22;;;5.70;;
44606;SDS011;30315;46.072;14.474;2023-11-19T12:30:22;7.38;;;6.68;;
44606;SDS011;30315;46.072;14.474;2023-11-19T12:36:01;6.60;;;6.00;;
44606;SDS011;30315;46.072;14.474;2023-11-19T12:39:09;5.97;;;5.55;;
44606;SDS011;30315;46.072;14.474;2023-11-19T12:41:49;8.00;;;5.88;;
44606;SDS011;30315;46.072;14.474;2023-11-19T12:48:54;6.90;;;6.22;;
44606;SDS011;30315;46.072;14.474;2023-11-19T12:51:30;12.38;;;6.47;;
44606;SDS011;30315;46.072;14.474;2023-11-19T12:54:16;8.15;;;6.53;;
44606;SDS011;30315;46.072;14.474;2023-11-19T12:56:56;6.32;;;5.75;;
44606;SDS011;30315;46.072;14.474;2023-11-19T12:59:31;6.93;;;6.25;;
44606;SDS011;30315;46.072;14.474;2023-11-19T13:01:59;6.20;;;5.63;;
44606;SDS011;30315;46.072;14.474;2023-11-19T13:09:29;9.93;;;6.45;;
44606;SDS011;30315;46.072;14.474;2023-11-19T13:21:45;7.35;;;6.00;;
44606;SDS011;30315;46.072;14.474;2023-11-19T13:24:41;8.02;;;6.00;;
44606;SDS011;30315;46.072;14.474;2023-11-19T13:34:24;11.05;;;5.57;;
44606;SDS011;30315;46.072;14.474;2023-11-19T14:06:03;6.82;;;5.38;;
44606;SDS011;30315;46.072;14.474;2023-11-19T14:14:21;3.10;;;2.80;;
44606;SDS011;30315;46.072;14.474;2023-11-19T14:17:21;1.58;;;1.48;;
44606;SDS011;30315;46.072;14.474;2023-11-19T14:23:04;1.63;;;1.52;;
44606;SDS011;30315;46.072;14.474;2023-11-19T14:32:00;1.45;;;1.42;;
44606;SDS011;30315;46.072;14.474;2023-11-19T14:35:02;1.35;;;1.35;;
44606;SDS011;30315;46.072;14.474;2023-11-19T14:37:45;1.60;;;1.50;;
44606;SDS011;30315;46.072;14.474;2023-11-19T14:41:01;1.67;;;1.58;;
44606;SDS011;30315;46.072;14.474;2023-11-19T14:47:41;1.30;;;1.30;;
44606;SDS011;30315;46.072;14.474;2023-11-19T14:50:15;1.48;;;1.48;;
44606;SDS011;30315;46.072;14.474;2023-11-19T14:52:55;1.80;;;1.70;;
44606;SDS011;30315;46.072;14.474;2023-11-19T14:55:23;1.50;;;1.50;;
44606;SDS011;30315;46.072;14.474;2023-11-19T15:07:28;2.22;;;1.83;;
44606;SDS011;30315;46.072;14.474;2023-11-19T15:09:55;1.55;;;1.45;;
44606;SDS011;30315;46.072;14.474;2023-11-19T15:15:37;1.60;;;1.50;;
44606;SDS011;30315;46.072;14.474;2023-11-19T15:19:04;1.92;;;1.70;;
44606;SDS011;30315;46.072;14.474;2023-11-19T15:21:58;1.92;;;1.77;;
44606;SDS011;30315;46.072;14.474;2023-11-19T15:24:34;2.03;;;1.92;;
44606;SDS011;30315;46.072;14.474;2023-11-19T15:27:06;1.65;;;1.55;;
44606;SDS011;30315;46.072;14.474;2023-11-19T15:29:45;1.75;;;1.65;;
44606;SDS011;30315;46.072;14.474;2023-11-19T15:32:13;1.85;;;1.75;;
44606;SDS011;30315;46.072;14.474;2023-11-19T15:34:46;10.50;;;1.90;;
44606;SDS011;30315;46.072;14.474;2023-11-19T15:37:19;2.10;;;2.00;;
44606;SDS011;30315;46.072;14.474;2023-11-19T15:43:15;3.50;;;2.28;;
44606;SDS011;30315;46.072;14.474;2023-11-19T15:45:44;1.98;;;1.88;;
44606;SDS011;30315;46.072;14.474;2023-11-19T15:48:27;1.73;;;1.67;;
44606;SDS011;30315;46.072;14.474;2023-11-19T15:50:54;1.80;;;1.77;;
44606;SDS011;30315;46.072;14.474;2023-11-19T15:53:24;2.13;;;1.98;;
44606;SDS011;30315;46.072;14.474;2023-11-19T15:56:12;7.53;;;2.20;;
44606;SDS011;30315;46.072;14.474;2023-11-19T15:58:48;1.45;;;1.45;;
44606;SDS011;30315;46.072;14.474;2023-11-19T16:04:21;2.00;;;1.90;;
44606;SDS011;30315;46.072;14.474;2023-11-19T16:06:49;3.28;;;2.15;;
44606;SDS011;30315;46.072;14.474;2023-11-19T16:09:27;2.15;;;2.05;;
44606;SDS011;30315;46.072;14.474;2023-11-19T16:11:55;1.90;;;1.80;;
44606;SDS011;30315;46.072;14.474;2023-11-19T16:14:35;3.00;;;2.80;;
44606;SDS011;30315;46.072;14.474;2023-11-19T16:17:13;1.88;;;1.77;;
44606;SDS011;30315;46.072;14.474;2023-11-19T16:22:32;2.42;;;2.33;;
44606;SDS011;30315;46.072;14.474;2023-11-19T16:25:20;2.95;;;2.78;;
44606;SDS011;30315;46.072;14.474;2023-11-19T16:30:27;2.28;;;2.17;;
44606;SDS011;30315;46.072;14.474;2023-11-19T16:32:57;3.70;;;2.60;;
44606;SDS011;30315;46.072;14.474;2023-11-19T16:36:04;4.30;;;3.13;;
44606;SDS011;30315;46.072;14.474;2023-11-19T16:38:34;2.53;;;2.42;;
44606;SDS011;30315;46.072;14.474;2023-11-19T16:41:13;2.90;;;2.70;;
44606;SDS011;30315;46.072;14.474;2023-11-19T16:44:54;3.30;;;3.10;;
44606;SDS011;30315;46.072;14.474;2023-11-19T16:47:53;3.30;;;2.85;;
44606;SDS011;30315;46.072;14.474;2023-11-19T16:50:54;2.13;;;2.03;;
44606;SDS011;30315;46.072;14.474;2023-11-19T16:59:38;7.03;;;3.83;;
44606;SDS011;30315;46.072;14.474;2023-11-19T17:02:29;4.18;;;3.80;;
44606;SDS011;30315;46.072;14.474;2023-11-19T17:05:20;3.60;;;3.35;;
44606;SDS011;30315;46.072;14.474;2023-11-19T17:11:07;2.75;;;2.55;;
44606;SDS011;30315;46.072;14.474;2023-11-19T17:14:24;3.28;;;3.08;;
44606;SDS011;30315;46.072;14.474;2023-11-19T17:18:12;2.38;;;2.25;;
44606;SDS011;30315;46.072;14.474;2023-11-19T17:27:34;3.05;;;2.92;;
44606;SDS011;30315;46.072;14.474;2023-11-19T17:30:06;3.00;;;2.85;;
44606;SDS011;30315;46.072;14.474;2023-11-19T17:32:40;3.88;;;3.58;;
44606;SDS011;30315;46.072;14.474;2023-11-19T17:35:11;6.05;;;4.38;;
44606;SDS011;30315;46.072;14.474;2023-11-19T17:40:53;4.65;;;3.97;;
44606;SDS011;30315;46.072;14.474;2023-11-19T17:43:40;3.63;;;3.30;;
44606;SDS011;30315;46.072;14.474;2023-11-19T17:46:27;3.35;;;3.15;;
44606;SDS011;30315;46.072;14.474;2023-11-19T17:49:01;3.45;;;3.17;;
44606;SDS011;30315;46.072;14.474;2023-11-19T17:54:47;4.00;;;3.47;;
44606;SDS011;30315;46.072;14.474;2023-11-19T17:57:25;3.85;;;3.38;;
44606;SDS011;30315;46.072;14.474;2023-11-19T17:59:56;4.22;;;3.45;;
44606;SDS011;30315;46.072;14.474;2023-11-19T18:03:08;3.55;;;3.25;;
44606;SDS011;30315;46.072;14.474;2023-11-19T18:05:45;4.13;;;3.83;;
44606;SDS011;30315;46.072;14.474;2023-11-19T18:08:17;3.95;;;3.70;;
44606;SDS011;30315;46.072;14.474;2023-11-19T18:18:27;4.53;;;4.13;;
44606;SDS011;30315;46.072;14.474;2023-11-19T18:24:13;4.32;;;4.03;;
44606;SDS011;30315;46.072;14.474;2023-11-19T18:26:44;5.57;;;4.97;;
44606;SDS011;30315;46.072;14.474;2023-11-19T18:29:34;4.35;;;4.05;;
44606;SDS011;30315;46.072;14.474;2023-11-19T18:32:59;6.35;;;3.63;;
44606;SDS011;30315;46.072;14.474;2023-11-19T18:36:05;4.25;;;4.03;;
44606;SDS011;30315;46.072;14.474;2023-11-19T18:38:53;6.88;;;4.70;;
44606;SDS011;30315;46.072;14.474;2023-11-19T18:51:13;6.90;;;5.45;;
44606;SDS011;30315;46.072;14.474;2023-11-19T18:53:42;5.13;;;4.82;;
44606;SDS011;30315;46.072;14.474;2023-11-19T18:57:22;11.75;;;5.63;;
44606;SDS011;30315;46.072;14.474;2023-11-19T19:03:24;6.38;;;5.43;;
44606;SDS011;30315;46.072;14.474;2023-11-19T19:05:54;7.10;;;6.18;;
44606;SDS011;30315;46.072;14.474;2023-11-19T19:08:30;6.93;;;5.60;;
44606;SDS011;30315;46.072;14.474;2023-11-19T19:11:01;9.13;;;6.88;;
44606;SDS011;30315;46.072;14.474;2023-11-19T19:13:31;7.80;;;7.10;;
44606;SDS011;30315;46.072;14.474;2023-11-19T19:16:05;10.27;;;7.70;;
44606;SDS011;30315;46.072;14.474;2023-11-19T19:19:11;9.60;;;7.28;;
44606;SDS011;30315;46.072;14.474;2023-11-19T19:25:28;6.38;;;5.78;;
44606;SDS011;30315;46.072;14.474;2023-11-19T19:31:15;6.03;;;5.47;;
44606;SDS011;30315;46.072;14.474;2023-11-19T19:34:47;6.57;;;6.07;;
44606;SDS011;30315;46.072;14.474;2023-11-19T19:37:34;7.95;;;6.90;;
44606;SDS011;30315;46.072;14.474;2023-11-19T19:43:42;8.90;;;7.95;;
44606;SDS011;30315;46.072;14.474;2023-11-19T19:46:12;11.48;;;8.13;;
44606;SDS011;30315;46.072;14.474;2023-11-19T19:48:39;9.43;;;8.02;;
44606;SDS011;30315;46.072;14.474;2023-11-19T19:51:21;13.93;;;9.48;;
44606;SDS011;30315;46.072;14.474;2023-11-19T19:54:25;10.27;;;8.35;;
44606;SDS011;30315;46.072;14.474;2023-11-19T19:58:19;14.10;;;8.88;;
44606;SDS011;30315;46.072;14.474;2023-11-19T20:00:47;9.63;;;8.65;;
44606;SDS011;30315;46.072;14.474;2023-11-19T20:03:14;13.18;;;9.70;;